createdAt,value
2023-04-15T00:00:52.622Z,26.32
2023-04-15T00:01:52.724Z,26.32
2023-04-15T00:02:52.750Z,26.22
2023-04-15T00:03:52.815Z,26.32
2023-04-15T00:04:52.724Z,26.22
2023-04-15T00:05:52.694Z,26.22
2023-04-15T00:06:52.638Z,26.32
2023-04-15T00:07:52.637Z,26.42
2023-04-15T00:08:52.632Z,26.32
2023-04-15T00:09:52.640Z,25.93
2023-04-15T00:10:52.642Z,26.32
2023-04-15T00:11:52.653Z,26.32
2023-04-15T00:12:52.650Z,26.42
2023-04-15T00:13:52.645Z,26.32
2023-04-15T00:14:52.669Z,26.22
2023-04-15T00:15:52.667Z,26.32
2023-04-15T00:16:52.750Z,26.32
2023-04-15T00:17:52.695Z,26.22
2023-04-15T00:18:52.655Z,26.22
2023-04-15T00:19:52.656Z,26.12
2023-04-15T00:20:52.745Z,26.32
2023-04-15T00:21:52.660Z,25.84
2023-04-15T00:22:52.662Z,26.03
2023-04-15T00:23:52.731Z,26.42
2023-04-15T00:24:52.665Z,26.22
2023-04-15T00:25:52.720Z,25.74
2023-04-15T00:26:52.662Z,26.42
2023-04-15T00:27:52.693Z,26.42
2023-04-15T00:28:52.668Z,26.22
2023-04-15T00:29:52.675Z,26.32
2023-04-15T00:30:52.790Z,26.42
2023-04-15T00:31:52.682Z,26.42
2023-04-15T00:32:52.803Z,26.32
2023-04-15T00:33:52.693Z,26.70
2023-04-15T00:34:52.677Z,26.42
2023-04-15T00:35:52.692Z,26.51
2023-04-15T00:36:52.697Z,26.42
2023-04-15T00:37:52.698Z,26.42
2023-04-15T00:38:52.693Z,26.80
2023-04-15T00:39:52.696Z,26.51
2023-04-15T00:40:52.690Z,26.80
2023-04-15T00:41:52.699Z,26.80
2023-04-15T00:42:52.692Z,26.80
2023-04-15T00:43:52.698Z,26.80
2023-04-15T00:44:52.701Z,26.61
2023-04-15T00:45:52.743Z,26.12
2023-04-15T00:46:52.733Z,26.32
2023-04-15T00:47:52.866Z,26.32
2023-04-15T00:48:52.714Z,26.42
2023-04-15T00:49:52.706Z,26.22
2023-04-15T00:50:52.713Z,26.32
2023-04-15T00:51:52.723Z,26.22
2023-04-15T00:52:52.715Z,26.32
2023-04-15T00:53:52.722Z,26.22
2023-04-15T00:54:52.715Z,25.84
2023-04-15T00:55:52.785Z,25.93
2023-04-15T00:56:52.724Z,25.93
2023-04-15T00:57:52.748Z,25.74
2023-04-15T00:58:52.730Z,25.93
2023-04-15T00:59:52.744Z,26.42
2023-04-15T01:00:52.733Z,26.03
2023-04-15T01:01:52.841Z,26.12
2023-04-15T01:02:52.894Z,26.33
2023-04-15T01:03:52.835Z,25.64
2023-04-15T01:04:52.736Z,25.93
2023-04-15T01:05:52.755Z,25.95
2023-04-15T01:06:52.744Z,25.84
2023-04-15T01:07:52.740Z,26.32
2023-04-15T01:08:52.744Z,25.64
2023-04-15T01:09:52.747Z,25.45
2023-04-15T01:10:52.799Z,25.93
2023-04-15T01:11:52.750Z,25.46
2023-04-15T01:12:52.758Z,25.55
2023-04-15T01:13:52.751Z,25.74
2023-04-15T01:14:52.755Z,25.66
2023-04-15T01:15:52.783Z,25.74
2023-04-15T01:16:52.753Z,25.95
2023-04-15T01:17:52.870Z,26.32
2023-04-15T01:18:52.786Z,25.45
2023-04-15T01:19:52.775Z,25.84
2023-04-15T01:20:52.768Z,26.33
2023-04-15T01:21:52.767Z,26.33
2023-04-15T01:22:52.769Z,25.74
2023-04-15T01:23:52.767Z,25.75
2023-04-15T01:24:52.770Z,25.56
2023-04-15T01:25:52.771Z,25.64
2023-04-15T01:26:52.776Z,25.64
2023-04-15T01:27:52.776Z,25.37
2023-04-15T01:28:52.779Z,25.45
2023-04-15T01:29:52.781Z,25.95
2023-04-15T01:30:52.784Z,26.42
2023-04-15T01:31:52.833Z,26.23
2023-04-15T01:32:52.805Z,25.93
2023-04-15T01:33:52.783Z,26.23
2023-04-15T01:34:52.810Z,26.32
2023-04-15T01:35:52.786Z,25.74
2023-04-15T01:36:52.794Z,25.74
2023-04-15T01:37:52.794Z,25.74
2023-04-15T01:38:52.815Z,25.93
2023-04-15T01:39:52.805Z,26.32
2023-04-15T01:40:52.796Z,26.22
2023-04-15T01:41:52.802Z,26.32
2023-04-15T01:42:52.806Z,26.22
2023-04-15T01:43:52.804Z,26.23
2023-04-15T01:44:52.812Z,26.42
2023-04-15T01:45:52.814Z,26.22
2023-04-15T01:46:52.867Z,26.32
2023-04-15T01:47:52.952Z,26.32
2023-04-15T01:48:52.816Z,26.23
2023-04-15T01:49:52.815Z,26.42
2023-04-15T01:50:52.845Z,26.12
2023-04-15T01:51:52.820Z,26.22
2023-04-15T01:52:52.839Z,26.32
2023-04-15T01:53:52.824Z,26.43
2023-04-15T01:54:52.837Z,26.32
2023-04-15T01:55:52.827Z,26.43
2023-04-15T01:56:52.833Z,26.32
2023-04-15T01:57:52.836Z,26.03
2023-04-15T01:58:52.876Z,26.32
2023-04-15T01:59:52.841Z,26.43
2023-04-15T02:00:52.867Z,26.32
2023-04-15T02:01:52.862Z,26.32
2023-04-15T02:02:52.932Z,26.32
2023-04-15T02:03:52.869Z,26.12
2023-04-15T02:04:52.844Z,25.93
2023-04-15T02:05:52.844Z,26.42
2023-04-15T02:06:52.874Z,26.42
2023-04-15T02:07:52.852Z,25.64
2023-04-15T02:08:52.858Z,25.93
2023-04-15T02:09:52.854Z,26.32
2023-04-15T02:10:52.867Z,25.93
2023-04-15T02:11:52.857Z,26.12
2023-04-15T02:12:52.864Z,25.84
2023-04-15T02:13:52.865Z,25.93
2023-04-15T02:14:52.863Z,26.42
2023-04-15T02:15:52.913Z,25.84
2023-04-15T02:16:53.015Z,26.12
2023-04-15T02:17:52.905Z,25.64
2023-04-15T02:18:52.884Z,25.74
2023-04-15T02:19:52.874Z,26.32
2023-04-15T02:20:52.877Z,26.22
2023-04-15T02:21:52.878Z,26.32
2023-04-15T02:22:52.904Z,26.42
2023-04-15T02:23:54.036Z,26.32
2023-04-15T02:24:52.887Z,26.32
2023-04-15T02:25:54.035Z,26.22
2023-04-15T02:26:52.888Z,26.22
2023-04-15T02:27:52.885Z,26.22
2023-04-15T02:28:52.892Z,25.74
2023-04-15T02:29:52.890Z,26.42
2023-04-15T02:30:53.334Z,26.42
2023-04-15T02:31:52.930Z,26.22
2023-04-15T02:32:52.933Z,26.32
2023-04-15T02:33:52.899Z,26.32
2023-04-15T02:34:52.905Z,26.12
2023-04-15T02:35:52.907Z,26.42
2023-04-15T02:36:52.905Z,26.32
2023-04-15T02:37:52.906Z,26.42
2023-04-15T02:38:53.040Z,26.32
2023-04-15T02:39:52.908Z,26.32
2023-04-15T02:40:52.911Z,26.32
2023-04-15T02:41:52.908Z,26.32
2023-04-15T02:42:52.921Z,26.22
2023-04-15T02:43:52.917Z,26.12
2023-04-15T02:44:52.919Z,25.93
2023-04-15T02:45:52.947Z,26.42
2023-04-15T02:46:52.979Z,26.32
2023-04-15T02:47:53.090Z,26.22
2023-04-15T02:48:52.931Z,26.32
2023-04-15T02:49:52.931Z,26.32
2023-04-15T02:50:52.951Z,26.22
2023-04-15T02:51:52.921Z,26.51
2023-04-15T02:52:52.947Z,26.32
2023-04-15T02:53:52.962Z,26.32
2023-04-15T02:54:52.956Z,26.22
2023-04-15T02:55:52.987Z,26.22
2023-04-15T02:56:52.934Z,26.51
2023-04-15T02:57:52.964Z,26.42
2023-04-15T02:58:52.981Z,26.42
2023-04-15T02:59:52.988Z,26.32
2023-04-15T03:00:52.974Z,26.80
2023-04-15T03:01:53.192Z,26.51
2023-04-15T03:02:53.165Z,26.22
2023-04-15T03:03:52.990Z,26.42
2023-04-15T03:04:53.022Z,26.61
2023-04-15T03:05:52.991Z,26.42
2023-04-15T03:06:53.031Z,26.51
2023-04-15T03:07:53.011Z,26.42
2023-04-15T03:08:52.957Z,26.51
2023-04-15T03:09:52.955Z,26.22
2023-04-15T03:10:53.127Z,26.32
2023-04-15T03:11:52.958Z,26.22
2023-04-15T03:12:52.965Z,26.42
2023-04-15T03:13:52.960Z,26.42
2023-04-15T03:14:52.963Z,26.42
2023-04-15T03:15:53.126Z,26.32
2023-04-15T03:16:52.964Z,26.42
2023-04-15T03:17:52.998Z,26.22
2023-04-15T03:18:52.970Z,26.42
2023-04-15T03:19:52.972Z,26.12
2023-04-15T03:20:52.973Z,26.12
2023-04-15T03:21:52.975Z,26.32
2023-04-15T03:22:52.977Z,26.32
2023-04-15T03:23:52.975Z,26.32
2023-04-15T03:24:52.974Z,26.22
2023-04-15T03:25:52.976Z,26.32
2023-04-15T03:26:53.005Z,26.22
2023-04-15T03:27:52.994Z,26.32
2023-04-15T03:28:52.990Z,26.42
2023-04-15T03:29:53.289Z,26.42
2023-04-15T03:30:53.047Z,26.32
2023-04-15T03:31:52.995Z,25.93
2023-04-15T03:32:53.044Z,26.42
2023-04-15T03:33:53.004Z,26.32
2023-04-15T03:34:53.013Z,25.93
2023-04-15T03:35:53.296Z,26.22
2023-04-15T03:36:53.017Z,26.22
2023-04-15T03:37:52.998Z,26.42
2023-04-15T03:38:53.007Z,26.42
2023-04-15T03:39:53.012Z,25.93
2023-04-15T03:40:53.023Z,26.42
2023-04-15T03:41:53.026Z,26.22
2023-04-15T03:42:53.036Z,26.32
2023-04-15T03:43:53.011Z,26.32
2023-04-15T03:44:53.015Z,26.03
2023-04-15T03:45:53.018Z,26.42
2023-04-15T03:46:53.123Z,26.32
2023-04-15T03:47:53.043Z,26.22
2023-04-15T03:48:53.021Z,26.42
2023-04-15T03:49:53.020Z,25.93
2023-04-15T03:50:53.022Z,25.93
2023-04-15T03:51:53.026Z,26.22
2023-04-15T03:52:53.031Z,26.42
2023-04-15T03:53:53.030Z,26.32
2023-04-15T03:54:53.041Z,26.32
2023-04-15T03:55:53.039Z,26.32
2023-04-15T03:56:53.037Z,26.32
2023-04-15T03:57:53.034Z,26.22
2023-04-15T03:58:53.069Z,26.42
2023-04-15T03:59:53.034Z,26.32
2023-04-15T04:00:53.040Z,26.22
2023-04-15T04:01:53.101Z,26.32
2023-04-15T04:02:53.261Z,26.12
2023-04-15T04:03:53.205Z,26.22
2023-04-15T04:04:53.115Z,26.22
2023-04-15T04:05:53.049Z,26.42
2023-04-15T04:06:53.359Z,26.22
2023-04-15T04:07:53.049Z,26.32
2023-04-15T04:08:53.063Z,26.32
2023-04-15T04:09:53.061Z,26.32
2023-04-15T04:10:53.057Z,26.22
2023-04-15T04:11:53.059Z,26.42
2023-04-15T04:12:53.071Z,26.32
2023-04-15T04:13:53.066Z,26.12
2023-04-15T04:14:53.188Z,26.32
2023-04-15T04:15:53.163Z,26.32
2023-04-15T04:16:53.108Z,25.84
2023-04-15T04:17:53.117Z,25.74
2023-04-15T04:18:53.075Z,26.32
2023-04-15T04:19:53.075Z,26.03
2023-04-15T04:20:53.079Z,26.22
2023-04-15T04:21:53.070Z,25.93
2023-04-15T04:22:53.277Z,25.84
2023-04-15T04:23:53.086Z,25.64
2023-04-15T04:24:53.080Z,25.84
2023-04-15T04:25:53.078Z,25.64
2023-04-15T04:26:53.082Z,25.64
2023-04-15T04:27:53.082Z,25.74
2023-04-15T04:28:53.091Z,25.64
2023-04-15T04:29:53.090Z,25.55
2023-04-15T04:30:53.118Z,25.55
2023-04-15T04:31:53.149Z,25.64
2023-04-15T04:32:53.172Z,25.35
2023-04-15T04:33:53.090Z,25.74
2023-04-15T04:34:53.097Z,26.22
2023-04-15T04:35:53.089Z,26.32
2023-04-15T04:36:53.097Z,26.32
2023-04-15T04:37:53.101Z,25.93
2023-04-15T04:38:53.152Z,26.42
2023-04-15T04:39:53.106Z,25.93
2023-04-15T04:40:53.100Z,25.93
2023-04-15T04:41:53.107Z,26.32
2023-04-15T04:42:53.104Z,26.22
2023-04-15T04:43:53.128Z,26.12
2023-04-15T04:44:53.114Z,26.42
2023-04-15T04:45:53.167Z,26.22
2023-04-15T04:46:53.135Z,25.93
2023-04-15T04:47:53.173Z,25.93
2023-04-15T04:48:53.112Z,25.93
2023-04-15T04:49:53.115Z,26.42
2023-04-15T04:50:53.132Z,25.74
2023-04-15T04:51:53.123Z,25.84
2023-04-15T04:52:53.132Z,25.93
2023-04-15T04:53:53.180Z,26.03
2023-04-15T04:54:53.137Z,25.64
2023-04-15T04:55:53.140Z,25.55
2023-04-15T04:56:53.135Z,25.84
2023-04-15T04:57:53.127Z,26.32
2023-04-15T04:58:53.133Z,26.12
2023-04-15T04:59:53.133Z,25.74
2023-04-15T05:00:53.207Z,25.84
2023-04-15T05:01:53.220Z,25.93
2023-04-15T05:02:53.266Z,25.64
2023-04-15T05:03:53.220Z,25.74
2023-04-15T05:04:53.139Z,25.64
2023-04-15T05:05:53.141Z,25.74
2023-04-15T05:06:53.144Z,25.74
2023-04-15T05:07:53.144Z,26.12
2023-04-15T05:08:53.153Z,25.74
2023-04-15T05:09:53.200Z,25.93
2023-04-15T05:10:53.157Z,26.42
2023-04-15T05:11:53.151Z,26.22
2023-04-15T05:12:53.155Z,26.22
2023-04-15T05:13:53.173Z,26.22
2023-04-15T05:14:53.162Z,26.32
2023-04-15T05:15:53.213Z,26.42
2023-04-15T05:16:53.162Z,26.80
2023-04-15T05:17:53.208Z,26.42
2023-04-15T05:18:53.192Z,26.32
2023-04-15T05:19:53.170Z,26.22
2023-04-15T05:20:53.173Z,26.42
2023-04-15T05:21:53.183Z,26.61
2023-04-15T05:22:53.174Z,26.70
2023-04-15T05:23:53.186Z,26.32
2023-04-15T05:24:53.190Z,26.61
2023-04-15T05:25:53.182Z,26.32
2023-04-15T05:26:53.178Z,26.42
2023-04-15T05:27:53.185Z,26.42
2023-04-15T05:28:53.180Z,26.42
2023-04-15T05:29:53.188Z,26.03
2023-04-15T05:30:53.197Z,26.22
2023-04-15T05:31:53.203Z,26.32
2023-04-15T05:32:53.251Z,26.22
2023-04-15T05:33:53.196Z,26.32
2023-04-15T05:34:53.217Z,26.61
2023-04-15T05:35:53.200Z,26.32
2023-04-15T05:36:53.198Z,26.51
2023-04-15T05:37:53.199Z,26.70
2023-04-15T05:38:53.205Z,26.70
2023-04-15T05:39:53.205Z,26.70
2023-04-15T05:40:53.199Z,26.23
2023-04-15T05:41:53.217Z,26.23
2023-04-15T05:42:53.204Z,26.23
2023-04-15T05:43:53.225Z,26.42
2023-04-15T05:44:53.209Z,26.14
2023-04-15T05:45:53.257Z,26.62
2023-04-15T05:46:53.219Z,26.32
2023-04-15T05:47:53.227Z,26.61
2023-04-15T05:49:53.231Z,26.33
2023-04-15T05:50:53.247Z,26.53
2023-04-15T05:51:53.224Z,26.62
2023-04-15T05:52:53.225Z,26.53
2023-04-15T05:53:53.228Z,26.81
2023-04-15T05:54:53.234Z,26.33
2023-04-15T05:55:53.222Z,26.53
2023-04-15T05:56:53.234Z,26.53
2023-04-15T05:57:53.228Z,26.72
2023-04-15T05:58:53.886Z,26.91
2023-04-15T05:59:53.247Z,26.62
2023-04-15T06:00:53.284Z,26.91
2023-04-15T06:01:53.303Z,26.81
2023-04-15T06:02:53.344Z,27.20
2023-04-15T06:03:53.446Z,27.11
2023-04-15T06:04:53.284Z,27.01
2023-04-15T06:05:53.252Z,27.11
2023-04-15T06:06:53.272Z,27.39
2023-04-15T06:07:53.253Z,27.01
2023-04-15T06:08:53.248Z,27.01
2023-04-15T06:09:53.254Z,27.11
2023-04-15T06:10:53.249Z,27.11
2023-04-15T06:11:53.283Z,27.29
2023-04-15T06:12:53.271Z,27.68
2023-04-15T06:13:53.267Z,27.39
2023-04-15T06:14:53.257Z,27.39
2023-04-15T06:15:53.279Z,27.20
2023-04-15T06:16:53.262Z,27.09
2023-04-15T06:17:53.290Z,27.11
2023-04-15T06:18:53.262Z,27.49
2023-04-15T06:19:53.276Z,27.11
2023-04-15T06:20:53.316Z,27.11
2023-04-15T06:21:53.274Z,27.49
2023-04-15T06:22:53.294Z,27.29
2023-04-15T06:23:53.277Z,27.39
2023-04-15T06:24:53.287Z,27.78
2023-04-15T06:25:53.275Z,28.07
2023-04-15T06:26:53.293Z,27.59
2023-04-15T06:27:53.289Z,27.68
2023-04-15T06:28:53.297Z,27.78
2023-04-15T06:29:53.287Z,27.59
2023-04-15T06:30:53.285Z,27.78
2023-04-15T06:31:53.423Z,27.68
2023-04-15T06:32:53.348Z,27.49
2023-04-15T06:33:53.312Z,27.78
2023-04-15T06:34:53.294Z,27.78
2023-04-15T06:35:53.297Z,27.78
2023-04-15T06:36:53.291Z,27.78
2023-04-15T06:37:53.295Z,27.49
2023-04-15T06:38:53.341Z,27.68
2023-04-15T06:39:53.303Z,27.78
2023-04-15T06:40:53.297Z,27.68
2023-04-15T06:41:53.300Z,27.49
2023-04-15T06:42:53.312Z,27.68
2023-04-15T06:43:53.307Z,27.59
2023-04-15T06:44:53.308Z,27.39
2023-04-15T06:45:53.350Z,27.49
2023-04-15T06:46:53.311Z,27.68
2023-04-15T06:47:53.323Z,27.78
2023-04-15T06:48:53.323Z,27.78
2023-04-15T06:49:53.318Z,27.78
2023-04-15T06:50:53.344Z,27.68
2023-04-15T06:51:53.326Z,27.59
2023-04-15T06:52:53.331Z,27.49
2023-04-15T06:53:53.321Z,27.20
2023-04-15T06:54:53.345Z,27.29
2023-04-15T06:55:53.428Z,27.29
2023-04-15T06:56:53.330Z,27.49
2023-04-15T06:57:53.335Z,27.20
2023-04-15T06:58:53.332Z,27.59
2023-04-15T06:59:53.342Z,28.07
2023-04-15T07:00:53.391Z,27.97
2023-04-15T07:01:53.359Z,27.49
2023-04-15T07:02:53.348Z,27.97
2023-04-15T07:03:53.375Z,27.39
2023-04-15T07:04:53.338Z,28.07
2023-04-15T07:05:53.599Z,27.68
2023-04-15T07:06:53.343Z,27.20
2023-04-15T07:07:53.349Z,27.49
2023-04-15T07:08:53.349Z,27.49
2023-04-15T07:09:53.354Z,27.39
2023-04-15T07:10:53.375Z,27.20
2023-04-15T07:11:53.357Z,27.01
2023-04-15T07:12:53.356Z,27.20
2023-04-15T07:13:53.357Z,27.29
2023-04-15T07:14:53.365Z,26.81
2023-04-15T07:15:53.368Z,26.62
2023-04-15T07:16:53.493Z,27.11
2023-04-15T07:17:53.390Z,27.29
2023-04-15T07:18:53.367Z,27.20
2023-04-15T07:19:53.370Z,27.01
2023-04-15T07:20:53.376Z,27.01
2023-04-15T07:21:53.376Z,27.01
2023-04-15T07:22:53.375Z,26.81
2023-04-15T07:23:53.384Z,26.91
2023-04-15T07:24:53.381Z,27.01
2023-04-15T07:25:53.386Z,27.29
2023-04-15T07:26:53.425Z,27.11
2023-04-15T07:27:53.382Z,27.11
2023-04-15T07:28:53.386Z,27.49
2023-04-15T07:29:53.397Z,27.49
2023-04-15T07:30:53.428Z,27.20
2023-04-15T07:31:53.396Z,27.39
2023-04-15T07:32:53.566Z,27.39
2023-04-15T07:33:53.401Z,27.49
2023-04-15T07:34:53.393Z,27.87
2023-04-15T07:35:53.408Z,27.59
2023-04-15T07:36:53.400Z,27.20
2023-04-15T07:37:53.405Z,27.01
2023-04-15T07:38:53.410Z,27.01
2023-04-15T07:39:53.408Z,27.20
2023-04-15T07:40:53.419Z,27.11
2023-04-15T07:41:53.423Z,27.78
2023-04-15T07:42:53.441Z,27.39
2023-04-15T07:43:53.409Z,28.16
2023-04-15T07:44:53.411Z,27.97
2023-04-15T07:45:53.470Z,27.59
2023-04-15T07:46:53.414Z,27.78
2023-04-15T07:47:53.465Z,27.49
2023-04-15T07:48:53.425Z,27.20
2023-04-15T07:49:53.424Z,27.20
2023-04-15T07:50:53.427Z,27.29
2023-04-15T07:51:53.427Z,27.20
2023-04-15T07:52:53.441Z,26.91
2023-04-15T07:53:53.436Z,27.20
2023-04-15T07:54:53.451Z,26.81
2023-04-15T07:55:53.591Z,26.91
2023-04-15T07:56:53.435Z,27.01
2023-04-15T07:57:53.440Z,26.72
2023-04-15T07:58:53.472Z,27.01
2023-04-15T07:59:53.442Z,26.81
2023-04-15T08:00:53.449Z,26.91
2023-04-15T08:01:53.489Z,26.91
2023-04-15T08:02:53.618Z,26.62
2023-04-15T08:03:53.548Z,26.62
2023-04-15T08:04:53.598Z,26.53
2023-04-15T08:05:53.459Z,26.33
2023-04-15T08:06:53.460Z,26.43
2023-04-15T08:07:53.461Z,26.43
2023-04-15T08:08:53.460Z,26.81
2023-04-15T08:09:53.466Z,26.33
2023-04-15T08:10:53.554Z,26.33
2023-04-15T08:11:53.471Z,26.53
2023-04-15T08:12:53.465Z,26.62
2023-04-15T08:13:53.476Z,26.91
2023-04-15T08:14:53.514Z,26.72
2023-04-15T08:15:53.489Z,26.72
2023-04-15T08:16:53.476Z,26.72
2023-04-15T08:17:53.540Z,26.81
2023-04-15T08:18:53.485Z,26.72
2023-04-15T08:19:53.480Z,26.81
2023-04-15T08:20:53.479Z,26.72
2023-04-15T08:21:53.481Z,26.81
2023-04-15T08:22:53.485Z,26.81
2023-04-15T08:23:53.487Z,26.73
2023-04-15T08:24:53.489Z,27.01
2023-04-15T08:25:53.496Z,26.72
2023-04-15T08:26:53.489Z,27.01
2023-04-15T08:27:53.511Z,26.92
2023-04-15T08:28:53.503Z,26.54
2023-04-15T08:29:53.504Z,26.33
2023-04-15T08:30:53.519Z,26.43
2023-04-15T08:31:53.628Z,26.64
2023-04-15T08:32:53.597Z,26.44
2023-04-15T08:33:53.508Z,24.20
2023-04-15T08:34:53.507Z,21.66
2023-04-15T08:35:53.508Z,22.43
2023-04-15T08:36:53.510Z,22.22
2023-04-15T08:37:53.516Z,21.92
2023-04-15T08:38:53.518Z,21.15
2023-04-15T08:39:53.522Z,21.84
2023-04-15T08:40:53.517Z,22.81
2023-04-15T08:41:53.522Z,23.98
2023-04-15T08:42:53.526Z,24.86
2023-04-15T08:43:53.528Z,25.24
2023-04-15T08:44:53.526Z,24.68
2023-04-15T08:45:53.532Z,24.87
2023-04-15T08:46:53.595Z,24.68
2023-04-15T08:47:53.557Z,24.68
2023-04-15T08:48:53.563Z,25.27
2023-04-15T08:49:53.551Z,25.27
2023-04-15T08:50:53.691Z,24.88
2023-04-15T08:51:53.550Z,24.98
2023-04-15T08:52:53.542Z,25.08
2023-04-15T08:53:53.549Z,24.88
2023-04-15T08:54:53.555Z,24.69
2023-04-15T08:55:53.555Z,25.27
2023-04-15T08:56:53.595Z,25.18
2023-04-15T08:57:53.554Z,25.09
2023-04-15T08:58:53.555Z,25.09
2023-04-15T08:59:53.566Z,24.88
2023-04-15T09:00:53.583Z,25.37
2023-04-15T09:01:53.585Z,25.37
2023-04-15T09:02:53.682Z,25.48
2023-04-15T09:03:53.733Z,25.48
2023-04-15T09:04:53.564Z,25.38
2023-04-15T09:05:53.580Z,25.48
2023-04-15T09:06:53.581Z,25.09
2023-04-15T09:07:53.671Z,24.71
2023-04-15T09:08:53.579Z,25.28
2023-04-15T09:09:53.591Z,25.38
2023-04-15T09:10:53.590Z,25.28
2023-04-15T09:11:53.585Z,25.57
2023-04-15T09:12:53.585Z,25.38
2023-04-15T09:13:53.593Z,25.38
2023-04-15T09:14:53.593Z,25.38
2023-04-15T09:15:53.599Z,25.67
2023-04-15T09:16:53.659Z,25.67
2023-04-15T09:17:53.620Z,25.67
2023-04-15T09:18:53.622Z,25.86
2023-04-15T09:19:53.608Z,25.97
2023-04-15T09:20:53.620Z,25.59
2023-04-15T09:21:53.965Z,25.67
2023-04-15T09:22:53.614Z,25.48
2023-04-15T09:23:53.621Z,25.39
2023-04-15T09:24:53.630Z,25.39
2023-04-15T09:25:53.641Z,25.59
2023-04-15T09:26:53.638Z,25.39
2023-04-15T09:27:53.650Z,25.39
2023-04-15T09:28:53.646Z,25.39
2023-04-15T09:29:53.649Z,25.39
2023-04-15T09:30:53.704Z,25.29
2023-04-15T09:31:53.665Z,25.02
2023-04-15T09:32:53.670Z,24.73
2023-04-15T09:33:53.662Z,25.31
2023-04-15T09:34:53.695Z,24.93
2023-04-15T09:35:53.670Z,24.35
2023-04-15T09:36:53.678Z,24.16
2023-04-15T09:37:53.686Z,23.77
2023-04-15T09:38:53.699Z,24.26
2023-04-15T09:39:53.682Z,21.83
2023-04-15T09:40:53.704Z,23.47
2023-04-15T09:41:53.693Z,24.26
2023-04-15T09:42:53.693Z,24.07
2023-04-15T09:43:53.700Z,24.07
2023-04-15T09:44:53.705Z,23.59
2023-04-15T09:45:53.727Z,23.59
2023-04-15T09:46:53.737Z,23.69
2023-04-15T09:47:53.732Z,23.69
2023-04-15T09:48:53.717Z,23.50
2023-04-15T09:49:53.752Z,23.50
2023-04-15T09:50:53.749Z,23.40
2023-04-15T09:52:04.522Z,23.30
2023-04-15T09:52:53.731Z,23.40
2023-04-15T09:53:53.734Z,23.40
2023-04-15T09:54:53.745Z,23.59
2023-04-15T09:55:53.755Z,23.59
2023-04-15T09:56:53.746Z,23.59
2023-04-15T09:57:53.748Z,23.69
2023-04-15T09:58:53.754Z,23.40
2023-04-15T09:59:53.757Z,23.30
2023-04-15T10:00:53.767Z,23.69
2023-04-15T10:01:53.862Z,23.40
2023-04-15T10:02:53.901Z,23.59
2023-04-15T10:03:53.927Z,23.40
2023-04-15T10:04:53.789Z,23.69
2023-04-15T10:05:53.839Z,23.77
2023-04-15T10:06:53.819Z,23.58
2023-04-15T10:07:53.791Z,23.58
2023-04-15T10:08:53.799Z,23.58
2023-04-15T10:09:53.797Z,23.58
2023-04-15T10:10:53.805Z,24.07
2023-04-15T10:11:53.812Z,23.58
2023-04-15T10:12:53.811Z,23.68
2023-04-15T10:13:53.814Z,23.58
2023-04-15T10:14:53.819Z,23.58
2023-04-15T10:15:53.841Z,23.87
2023-04-15T10:16:53.829Z,23.97
2023-04-15T10:17:53.849Z,24.07
2023-04-15T10:18:53.837Z,23.97
2023-04-15T10:19:53.838Z,23.77
2023-04-15T10:20:53.868Z,23.87
2023-04-15T10:21:53.847Z,23.97
2023-04-15T10:22:53.876Z,23.77
2023-04-15T10:23:53.854Z,23.87
2023-04-15T10:24:53.863Z,23.87
2023-04-15T10:25:54.014Z,23.86
2023-04-15T10:26:53.876Z,24.15
2023-04-15T10:27:53.867Z,24.05
2023-04-15T10:28:53.882Z,23.96
2023-04-15T10:29:53.885Z,23.96
2023-04-15T10:30:53.968Z,24.05
2023-04-15T10:31:53.886Z,23.96
2023-04-15T10:32:53.960Z,24.05
2023-04-15T10:33:53.894Z,24.05
2023-04-15T10:34:54.567Z,24.05
2023-04-15T10:35:53.910Z,23.86
2023-04-15T10:36:53.908Z,24.05
2023-04-15T10:37:53.917Z,24.15
2023-04-15T10:38:53.950Z,23.96
2023-04-15T10:39:53.918Z,23.96
2023-04-15T10:40:53.925Z,24.05
2023-04-15T10:41:53.924Z,23.96
2023-04-15T10:42:53.926Z,24.44
2023-04-15T10:43:53.929Z,23.86
2023-04-15T10:44:53.937Z,24.05
2023-04-15T10:45:54.247Z,24.24
2023-04-15T10:46:54.041Z,24.15
2023-04-15T10:47:53.973Z,24.05
2023-04-15T10:48:53.954Z,24.24
2023-04-15T10:49:53.948Z,24.34
2023-04-15T10:50:53.960Z,24.15
2023-04-15T10:51:53.974Z,24.24
2023-04-15T10:52:53.963Z,24.15
2023-04-15T10:53:53.985Z,24.24
2023-04-15T10:54:54.100Z,24.34
2023-04-15T10:55:53.972Z,24.44
2023-04-15T10:56:53.978Z,24.44
2023-04-15T10:57:53.985Z,24.44
2023-04-15T10:58:53.984Z,24.44
2023-04-15T10:59:53.987Z,24.34
2023-04-15T11:00:53.997Z,24.24
2023-04-15T11:01:54.242Z,24.44
2023-04-15T11:02:54.099Z,24.54
2023-04-15T11:03:54.155Z,24.24
2023-04-15T11:04:54.147Z,23.96
2023-04-15T11:05:54.030Z,24.44
2023-04-15T11:06:54.015Z,24.16
2023-04-15T11:07:54.024Z,24.05
2023-04-15T11:08:54.032Z,24.44
2023-04-15T11:09:54.019Z,24.15
2023-04-15T11:10:54.130Z,23.96
2023-04-15T11:11:54.032Z,23.96
2023-04-15T11:12:54.031Z,24.24
2023-04-15T11:13:54.054Z,24.24
2023-04-15T11:14:54.043Z,24.35
2023-04-15T11:15:54.070Z,24.24
2023-04-15T11:16:54.044Z,24.05
2023-04-15T11:17:54.158Z,24.15
2023-04-15T11:18:54.057Z,23.97
2023-04-15T11:19:54.068Z,24.07
2023-04-15T11:20:54.066Z,23.97
2023-04-15T11:21:54.053Z,23.77
2023-04-15T11:23:08.169Z,24.07
2023-04-15T11:23:54.065Z,23.68
2023-04-15T11:24:54.070Z,24.07
2023-04-15T11:25:54.071Z,24.07
2023-04-15T11:26:54.098Z,24.16
2023-04-15T11:27:54.094Z,24.07
2023-04-15T11:28:54.083Z,24.16
2023-04-15T11:29:54.093Z,24.16
2023-04-15T11:30:54.093Z,23.97
2023-04-15T11:31:54.126Z,24.07
2023-04-15T11:32:54.138Z,24.07
2023-04-15T11:33:54.118Z,23.87
2023-04-15T11:34:54.103Z,24.26
2023-04-15T11:35:54.125Z,24.26
2023-04-15T11:36:54.105Z,24.26
2023-04-15T11:37:54.109Z,24.26
2023-04-15T11:38:54.122Z,24.26
2023-04-15T11:39:54.120Z,24.26
2023-04-15T11:40:54.120Z,24.16
2023-04-15T11:41:54.140Z,24.16
2023-04-15T11:42:54.150Z,24.45
2023-04-15T11:43:54.144Z,24.45
2023-04-15T11:44:54.136Z,24.45
2023-04-15T11:45:54.208Z,24.35
2023-04-15T11:46:54.146Z,24.35
2023-04-15T11:47:54.190Z,24.07
2023-04-15T11:48:54.157Z,23.68
2023-04-15T11:49:54.152Z,23.97
2023-04-15T11:50:54.183Z,23.77
2023-04-15T11:51:54.219Z,23.97
2023-04-15T11:52:54.173Z,24.16
2023-04-15T11:53:54.165Z,24.07
2023-04-15T11:54:54.177Z,23.97
2023-04-15T11:55:54.174Z,24.07
2023-04-15T11:56:54.184Z,24.16
2023-04-15T11:57:54.175Z,23.87
2023-04-15T11:58:54.212Z,24.07
2023-04-15T11:59:54.187Z,24.07
2023-04-15T12:00:54.198Z,23.87
2023-04-15T12:01:54.266Z,24.16
2023-04-15T12:02:54.273Z,23.87
2023-04-15T12:03:54.327Z,24.07
2023-04-15T12:04:54.292Z,23.49
2023-04-15T12:05:54.209Z,23.87
2023-04-15T12:06:54.219Z,24.07
2023-04-15T12:07:54.217Z,23.87
2023-04-15T12:08:54.218Z,23.87
2023-04-15T12:09:54.218Z,24.16
2023-04-15T12:10:54.223Z,24.07
2023-04-15T12:11:54.241Z,24.16
2023-04-15T12:12:54.234Z,24.35
2023-04-15T12:13:54.238Z,24.45
2023-04-15T12:14:54.255Z,24.35
2023-04-15T12:15:54.276Z,24.07
2023-04-15T12:16:54.255Z,24.16
2023-04-15T12:17:54.277Z,24.07
2023-04-15T12:18:54.251Z,24.16
2023-04-15T12:19:54.251Z,23.87
2023-04-15T12:20:54.257Z,23.87
2023-04-15T12:21:54.256Z,23.58
2023-04-15T12:22:54.276Z,23.58
2023-04-15T12:23:54.270Z,23.97
2023-04-15T12:24:54.266Z,23.97
2023-04-15T12:25:54.272Z,23.87
2023-04-15T12:26:54.288Z,24.07
2023-04-15T12:27:54.282Z,23.97
2023-04-15T12:28:54.288Z,23.97
2023-04-15T12:29:54.288Z,23.87
2023-04-15T12:30:54.385Z,23.87
2023-04-15T12:31:54.300Z,24.16
2023-04-15T12:32:54.351Z,24.35
2023-04-15T12:33:54.314Z,24.45
2023-04-15T12:34:54.338Z,24.16
2023-04-15T12:35:54.325Z,23.97
2023-04-15T12:36:54.316Z,24.07
2023-04-15T12:37:54.327Z,24.26
2023-04-15T12:38:54.330Z,24.35
2023-04-15T12:39:54.338Z,24.45
2023-04-15T12:40:54.337Z,24.16
2023-04-15T12:41:54.338Z,24.35
2023-04-15T12:42:54.340Z,24.26
2023-04-15T12:43:54.377Z,23.87
2023-04-15T12:44:54.347Z,23.87
2023-04-15T12:45:54.353Z,23.97
2023-04-15T12:46:54.623Z,24.16
2023-04-15T12:47:54.495Z,24.16
2023-04-15T12:48:54.368Z,24.16
2023-04-15T12:49:54.363Z,24.07
2023-04-15T12:50:54.374Z,24.45
2023-04-15T12:51:54.388Z,24.35
2023-04-15T12:52:54.382Z,24.16
2023-04-15T12:53:54.385Z,24.16